sensor_id;sensor_type;location;lat;lon;timestamp;P1;durP1;ratioP1;P2;durP2;ratioP2
43311;SDS011;30041;48.300;16.352;2023-06-26T00:02:13;5.53;;;4.40;;
43311;SDS011;30041;48.300;16.352;2023-06-26T00:04:38;5.15;;;4.10;;
43311;SDS011;30041;48.300;16.352;2023-06-26T00:07:04;6.20;;;4.47;;
43311;SDS011;30041;48.300;16.352;2023-06-26T00:09:30;5.05;;;4.20;;
43311;SDS011;30041;48.300;16.352;2023-06-26T00:11:56;5.85;;;4.70;;
43311;SDS011;30041;48.300;16.352;2023-06-26T00:14:21;5.15;;;4.28;;
43311;SDS011;30041;48.300;16.352;2023-06-26T00:16:47;5.40;;;4.25;;
43311;SDS011;30041;48.300;16.352;2023-06-26T00:19:13;6.03;;;4.07;;
43311;SDS011;30041;48.300;16.352;2023-06-26T00:21:38;5.15;;;4.35;;
43311;SDS011;30041;48.300;16.352;2023-06-26T00:24:04;6.35;;;4.47;;
43311;SDS011;30041;48.300;16.352;2023-06-26T00:26:30;5.45;;;4.05;;
43311;SDS011;30041;48.300;16.352;2023-06-26T00:28:55;7.10;;;4.50;;
43311;SDS011;30041;48.300;16.352;2023-06-26T00:31:20;5.57;;;4.32;;
43311;SDS011;30041;48.300;16.352;2023-06-26T00:33:46;5.03;;;4.13;;
43311;SDS011;30041;48.300;16.352;2023-06-26T00:36:11;10.15;;;4.30;;
43311;SDS011;30041;48.300;16.352;2023-06-26T00:38:37;6.63;;;4.20;;
43311;SDS011;30041;48.300;16.352;2023-06-26T00:41:02;6.97;;;4.22;;
43311;SDS011;30041;48.300;16.352;2023-06-26T00:43:28;4.82;;;4.10;;
43311;SDS011;30041;48.300;16.352;2023-06-26T00:45:53;5.75;;;4.03;;
43311;SDS011;30041;48.300;16.352;2023-06-26T00:48:19;4.95;;;4.07;;
43311;SDS011;30041;48.300;16.352;2023-06-26T00:50:44;6.72;;;4.43;;
43311;SDS011;30041;48.300;16.352;2023-06-26T00:53:10;8.98;;;4.47;;
43311;SDS011;30041;48.300;16.352;2023-06-26T00:55:36;6.95;;;4.13;;
43311;SDS011;30041;48.300;16.352;2023-06-26T00:58:02;7.43;;;3.95;;
43311;SDS011;30041;48.300;16.352;2023-06-26T01:00:27;5.95;;;4.43;;
43311;SDS011;30041;48.300;16.352;2023-06-26T01:02:53;4.80;;;4.15;;
43311;SDS011;30041;48.300;16.352;2023-06-26T01:05:19;5.15;;;4.22;;
43311;SDS011;30041;48.300;16.352;2023-06-26T01:07:46;4.70;;;4.18;;
43311;SDS011;30041;48.300;16.352;2023-06-26T01:10:13;5.72;;;4.40;;
43311;SDS011;30041;48.300;16.352;2023-06-26T01:12:39;5.95;;;4.38;;
43311;SDS011;30041;48.300;16.352;2023-06-26T01:15:04;5.22;;;4.55;;
43311;SDS011;30041;48.300;16.352;2023-06-26T01:17:30;4.93;;;4.18;;
43311;SDS011;30041;48.300;16.352;2023-06-26T01:20:00;4.72;;;4.22;;
43311;SDS011;30041;48.300;16.352;2023-06-26T01:22:31;6.18;;;4.38;;
43311;SDS011;30041;48.300;16.352;2023-06-26T01:28:16;6.30;;;4.75;;
43311;SDS011;30041;48.300;16.352;2023-06-26T01:30:44;5.70;;;4.55;;
43311;SDS011;30041;48.300;16.352;2023-06-26T01:33:11;5.25;;;4.43;;
43311;SDS011;30041;48.300;16.352;2023-06-26T01:35:38;5.75;;;4.28;;
43311;SDS011;30041;48.300;16.352;2023-06-26T01:38:12;6.38;;;4.40;;
43311;SDS011;30041;48.300;16.352;2023-06-26T01:40:38;7.30;;;4.30;;
43311;SDS011;30041;48.300;16.352;2023-06-26T01:43:04;4.85;;;4.30;;
43311;SDS011;30041;48.300;16.352;2023-06-26T01:45:35;5.13;;;4.18;;
43311;SDS011;30041;48.300;16.352;2023-06-26T01:48:02;5.22;;;4.28;;
43311;SDS011;30041;48.300;16.352;2023-06-26T01:50:31;7.18;;;4.78;;
43311;SDS011;30041;48.300;16.352;2023-06-26T01:53:01;6.05;;;4.53;;
43311;SDS011;30041;48.300;16.352;2023-06-26T01:55:44;5.80;;;4.80;;
43311;SDS011;30041;48.300;16.352;2023-06-26T01:58:13;5.88;;;4.80;;
43311;SDS011;30041;48.300;16.352;2023-06-26T02:00:39;4.90;;;4.40;;
43311;SDS011;30041;48.300;16.352;2023-06-26T02:03:05;6.28;;;4.57;;
43311;SDS011;30041;48.300;16.352;2023-06-26T02:05:30;5.93;;;4.80;;
43311;SDS011;30041;48.300;16.352;2023-06-26T02:07:56;5.65;;;4.53;;
43311;SDS011;30041;48.300;16.352;2023-06-26T02:10:22;6.30;;;4.82;;
43311;SDS011;30041;48.300;16.352;2023-06-26T02:12:47;5.35;;;4.85;;
43311;SDS011;30041;48.300;16.352;2023-06-26T02:15:13;5.57;;;4.53;;
43311;SDS011;30041;48.300;16.352;2023-06-26T02:17:38;5.85;;;4.70;;
43311;SDS011;30041;48.300;16.352;2023-06-26T02:20:04;5.60;;;4.43;;
43311;SDS011;30041;48.300;16.352;2023-06-26T02:22:30;7.40;;;4.85;;
43311;SDS011;30041;48.300;16.352;2023-06-26T02:24:55;5.93;;;4.70;;
43311;SDS011;30041;48.300;16.352;2023-06-26T02:27:21;5.22;;;4.65;;
43311;SDS011;30041;48.300;16.352;2023-06-26T02:29:46;5.10;;;4.60;;
43311;SDS011;30041;48.300;16.352;2023-06-26T02:32:12;7.07;;;5.03;;
43311;SDS011;30041;48.300;16.352;2023-06-26T02:34:38;5.97;;;5.30;;
43311;SDS011;30041;48.300;16.352;2023-06-26T02:37:04;6.05;;;4.97;;
43311;SDS011;30041;48.300;16.352;2023-06-26T02:39:29;6.43;;;4.97;;
43311;SDS011;30041;48.300;16.352;2023-06-26T02:41:55;5.38;;;4.63;;
43311;SDS011;30041;48.300;16.352;2023-06-26T02:44:20;6.75;;;4.78;;
43311;SDS011;30041;48.300;16.352;2023-06-26T02:46:46;8.07;;;5.35;;
43311;SDS011;30041;48.300;16.352;2023-06-26T02:49:11;7.97;;;5.60;;
43311;SDS011;30041;48.300;16.352;2023-06-26T02:51:37;6.85;;;4.80;;
43311;SDS011;30041;48.300;16.352;2023-06-26T02:54:03;5.13;;;4.63;;
43311;SDS011;30041;48.300;16.352;2023-06-26T02:56:28;6.40;;;5.18;;
43311;SDS011;30041;48.300;16.352;2023-06-26T02:58:54;5.78;;;5.05;;
43311;SDS011;30041;48.300;16.352;2023-06-26T03:01:20;9.45;;;5.63;;
43311;SDS011;30041;48.300;16.352;2023-06-26T03:03:46;6.72;;;5.32;;
43311;SDS011;30041;48.300;16.352;2023-06-26T03:06:12;7.35;;;5.18;;
43311;SDS011;30041;48.300;16.352;2023-06-26T03:08:39;7.22;;;5.47;;
43311;SDS011;30041;48.300;16.352;2023-06-26T03:11:05;6.63;;;5.32;;
43311;SDS011;30041;48.300;16.352;2023-06-26T03:13:35;7.18;;;5.25;;
43311;SDS011;30041;48.300;16.352;2023-06-26T03:16:01;7.05;;;5.15;;
43311;SDS011;30041;48.300;16.352;2023-06-26T03:18:27;6.85;;;5.22;;
43311;SDS011;30041;48.300;16.352;2023-06-26T03:20:53;6.88;;;5.13;;
43311;SDS011;30041;48.300;16.352;2023-06-26T03:23:20;6.40;;;5.15;;
43311;SDS011;30041;48.300;16.352;2023-06-26T03:25:47;6.90;;;5.03;;
43311;SDS011;30041;48.300;16.352;2023-06-26T03:28:13;6.72;;;5.47;;
43311;SDS011;30041;48.300;16.352;2023-06-26T03:30:38;6.20;;;5.40;;
43311;SDS011;30041;48.300;16.352;2023-06-26T03:33:04;8.73;;;5.43;;
43311;SDS011;30041;48.300;16.352;2023-06-26T03:35:30;7.97;;;5.40;;
43311;SDS011;30041;48.300;16.352;2023-06-26T03:37:56;6.07;;;5.47;;
43311;SDS011;30041;48.300;16.352;2023-06-26T03:40:22;6.32;;;5.72;;
43311;SDS011;30041;48.300;16.352;2023-06-26T03:42:48;8.02;;;5.40;;
43311;SDS011;30041;48.300;16.352;2023-06-26T03:45:14;5.93;;;5.30;;
43311;SDS011;30041;48.300;16.352;2023-06-26T03:47:39;6.03;;;5.43;;
43311;SDS011;30041;48.300;16.352;2023-06-26T03:50:05;6.60;;;6.00;;
43311;SDS011;30041;48.300;16.352;2023-06-26T03:52:31;10.60;;;6.18;;
43311;SDS011;30041;48.300;16.352;2023-06-26T03:54:59;8.20;;;6.13;;
43311;SDS011;30041;48.300;16.352;2023-06-26T03:57:25;7.30;;;5.70;;
43311;SDS011;30041;48.300;16.352;2023-06-26T03:59:51;11.32;;;6.05;;
43311;SDS011;30041;48.300;16.352;2023-06-26T04:02:17;7.78;;;6.22;;
43311;SDS011;30041;48.300;16.352;2023-06-26T04:04:42;7.88;;;6.45;;
43311;SDS011;30041;48.300;16.352;2023-06-26T04:07:08;9.23;;;6.65;;
43311;SDS011;30041;48.300;16.352;2023-06-26T04:09:33;9.07;;;6.40;;
43311;SDS011;30041;48.300;16.352;2023-06-26T04:11:59;8.27;;;6.38;;
43311;SDS011;30041;48.300;16.352;2023-06-26T04:14:24;8.68;;;7.00;;
43311;SDS011;30041;48.300;16.352;2023-06-26T04:16:50;8.38;;;6.72;;
43311;SDS011;30041;48.300;16.352;2023-06-26T04:19:15;9.23;;;6.97;;
43311;SDS011;30041;48.300;16.352;2023-06-26T04:21:41;11.40;;;6.95;;
43311;SDS011;30041;48.300;16.352;2023-06-26T04:24:07;9.57;;;7.07;;
43311;SDS011;30041;48.300;16.352;2023-06-26T04:26:32;8.30;;;6.57;;
43311;SDS011;30041;48.300;16.352;2023-06-26T04:28:58;12.13;;;7.25;;
43311;SDS011;30041;48.300;16.352;2023-06-26T04:31:24;8.00;;;6.65;;
43311;SDS011;30041;48.300;16.352;2023-06-26T04:33:49;8.98;;;7.22;;
43311;SDS011;30041;48.300;16.352;2023-06-26T04:36:15;13.57;;;7.38;;
43311;SDS011;30041;48.300;16.352;2023-06-26T04:38:40;10.77;;;6.93;;
43311;SDS011;30041;48.300;16.352;2023-06-26T04:41:06;11.15;;;7.07;;
43311;SDS011;30041;48.300;16.352;2023-06-26T04:43:31;8.95;;;7.18;;
43311;SDS011;30041;48.300;16.352;2023-06-26T04:45:56;10.98;;;7.25;;
43311;SDS011;30041;48.300;16.352;2023-06-26T04:48:22;9.27;;;7.07;;
43311;SDS011;30041;48.300;16.352;2023-06-26T04:50:48;10.13;;;7.07;;
43311;SDS011;30041;48.300;16.352;2023-06-26T04:53:13;9.05;;;7.00;;
43311;SDS011;30041;48.300;16.352;2023-06-26T04:55:39;9.30;;;6.72;;
43311;SDS011;30041;48.300;16.352;2023-06-26T04:58:04;10.10;;;7.00;;
43311;SDS011;30041;48.300;16.352;2023-06-26T05:00:29;11.48;;;7.53;;
43311;SDS011;30041;48.300;16.352;2023-06-26T05:02:55;8.02;;;7.03;;
43311;SDS011;30041;48.300;16.352;2023-06-26T05:05:21;9.55;;;6.90;;
43311;SDS011;30041;48.300;16.352;2023-06-26T05:07:46;8.35;;;6.97;;
43311;SDS011;30041;48.300;16.352;2023-06-26T05:10:12;10.15;;;7.00;;
43311;SDS011;30041;48.300;16.352;2023-06-26T05:12:37;9.65;;;6.95;;
43311;SDS011;30041;48.300;16.352;2023-06-26T05:15:03;10.20;;;6.72;;
43311;SDS011;30041;48.300;16.352;2023-06-26T05:17:29;10.15;;;6.40;;
43311;SDS011;30041;48.300;16.352;2023-06-26T05:19:54;12.18;;;6.20;;
43311;SDS011;30041;48.300;16.352;2023-06-26T05:22:20;12.38;;;6.35;;
43311;SDS011;30041;48.300;16.352;2023-06-26T05:24:46;7.43;;;6.25;;
43311;SDS011;30041;48.300;16.352;2023-06-26T05:27:12;9.73;;;5.65;;
43311;SDS011;30041;48.300;16.352;2023-06-26T05:29:38;12.35;;;6.97;;
43311;SDS011;30041;48.300;16.352;2023-06-26T05:32:04;11.65;;;8.27;;
43311;SDS011;30041;48.300;16.352;2023-06-26T05:34:30;13.05;;;7.43;;
43311;SDS011;30041;48.300;16.352;2023-06-26T05:36:58;9.38;;;7.70;;
43311;SDS011;30041;48.300;16.352;2023-06-26T05:39:24;15.27;;;8.20;;
43311;SDS011;30041;48.300;16.352;2023-06-26T05:41:50;9.85;;;8.02;;
43311;SDS011;30041;48.300;16.352;2023-06-26T05:44:16;10.10;;;7.25;;
43311;SDS011;30041;48.300;16.352;2023-06-26T05:46:42;11.30;;;8.25;;
43311;SDS011;30041;48.300;16.352;2023-06-26T05:49:08;10.13;;;7.82;;
43311;SDS011;30041;48.300;16.352;2023-06-26T05:51:33;11.93;;;7.70;;
43311;SDS011;30041;48.300;16.352;2023-06-26T05:53:59;10.68;;;7.55;;
43311;SDS011;30041;48.300;16.352;2023-06-26T05:56:25;10.98;;;7.50;;
43311;SDS011;30041;48.300;16.352;2023-06-26T05:58:51;8.32;;;7.25;;
43311;SDS011;30041;48.300;16.352;2023-06-26T06:01:18;9.90;;;7.05;;
43311;SDS011;30041;48.300;16.352;2023-06-26T06:03:43;9.88;;;7.40;;
43311;SDS011;30041;48.300;16.352;2023-06-26T06:06:09;8.77;;;7.68;;
43311;SDS011;30041;48.300;16.352;2023-06-26T06:08:35;8.98;;;7.32;;
43311;SDS011;30041;48.300;16.352;2023-06-26T06:11:01;9.68;;;7.10;;
43311;SDS011;30041;48.300;16.352;2023-06-26T06:13:26;10.50;;;7.60;;
43311;SDS011;30041;48.300;16.352;2023-06-26T06:15:52;17.13;;;7.13;;
43311;SDS011;30041;48.300;16.352;2023-06-26T06:18:17;10.20;;;6.50;;
43311;SDS011;30041;48.300;16.352;2023-06-26T06:20:43;14.07;;;7.40;;
43311;SDS011;30041;48.300;16.352;2023-06-26T06:23:08;10.35;;;6.53;;
43311;SDS011;30041;48.300;16.352;2023-06-26T06:25:34;9.57;;;6.60;;
43311;SDS011;30041;48.300;16.352;2023-06-26T06:27:59;8.30;;;6.70;;
43311;SDS011;30041;48.300;16.352;2023-06-26T06:30:25;8.80;;;6.35;;
43311;SDS011;30041;48.300;16.352;2023-06-26T06:32:50;6.88;;;6.10;;
43311;SDS011;30041;48.300;16.352;2023-06-26T06:35:17;7.78;;;6.80;;
43311;SDS011;30041;48.300;16.352;2023-06-26T06:37:43;11.23;;;6.63;;
43311;SDS011;30041;48.300;16.352;2023-06-26T06:40:09;8.07;;;6.35;;
43311;SDS011;30041;48.300;16.352;2023-06-26T06:42:35;10.75;;;6.53;;
43311;SDS011;30041;48.300;16.352;2023-06-26T06:45:04;11.68;;;6.38;;
43311;SDS011;30041;48.300;16.352;2023-06-26T06:47:31;8.70;;;6.70;;
43311;SDS011;30041;48.300;16.352;2023-06-26T06:49:57;9.60;;;6.47;;
43311;SDS011;30041;48.300;16.352;2023-06-26T06:52:23;10.55;;;6.55;;
43311;SDS011;30041;48.300;16.352;2023-06-26T06:54:55;9.50;;;6.53;;
43311;SDS011;30041;48.300;16.352;2023-06-26T06:57:22;8.18;;;6.55;;
43311;SDS011;30041;48.300;16.352;2023-06-26T06:59:47;7.45;;;6.28;;
43311;SDS011;30041;48.300;16.352;2023-06-26T07:02:13;7.00;;;6.00;;
43311;SDS011;30041;48.300;16.352;2023-06-26T07:04:39;7.32;;;6.40;;
43311;SDS011;30041;48.300;16.352;2023-06-26T07:07:05;6.93;;;6.00;;
43311;SDS011;30041;48.300;16.352;2023-06-26T07:09:30;8.65;;;6.50;;
43311;SDS011;30041;48.300;16.352;2023-06-26T07:11:56;6.80;;;5.78;;
43311;SDS011;30041;48.300;16.352;2023-06-26T07:14:21;6.22;;;5.55;;
43311;SDS011;30041;48.300;16.352;2023-06-26T07:16:47;7.75;;;5.45;;
43311;SDS011;30041;48.300;16.352;2023-06-26T07:19:12;7.10;;;6.03;;
43311;SDS011;30041;48.300;16.352;2023-06-26T07:21:38;6.38;;;5.20;;
43311;SDS011;30041;48.300;16.352;2023-06-26T07:24:04;5.90;;;5.25;;
43311;SDS011;30041;48.300;16.352;2023-06-26T07:26:29;5.28;;;4.78;;
43311;SDS011;30041;48.300;16.352;2023-06-26T07:28:55;6.03;;;4.95;;
43311;SDS011;30041;48.300;16.352;2023-06-26T07:31:20;6.05;;;5.30;;
43311;SDS011;30041;48.300;16.352;2023-06-26T07:33:46;5.78;;;5.18;;
43311;SDS011;30041;48.300;16.352;2023-06-26T07:36:12;7.03;;;5.13;;
43311;SDS011;30041;48.300;16.352;2023-06-26T07:38:37;7.25;;;4.60;;
43311;SDS011;30041;48.300;16.352;2023-06-26T07:41:03;5.43;;;4.35;;
43311;SDS011;30041;48.300;16.352;2023-06-26T07:43:28;5.63;;;4.53;;
43311;SDS011;30041;48.300;16.352;2023-06-26T07:45:54;6.22;;;4.60;;
43311;SDS011;30041;48.300;16.352;2023-06-26T07:48:19;4.80;;;4.30;;
43311;SDS011;30041;48.300;16.352;2023-06-26T07:50:45;5.63;;;4.82;;
43311;SDS011;30041;48.300;16.352;2023-06-26T07:53:10;4.43;;;3.85;;
43311;SDS011;30041;48.300;16.352;2023-06-26T07:55:36;6.20;;;4.40;;
43311;SDS011;30041;48.300;16.352;2023-06-26T07:58:01;6.63;;;4.60;;
43311;SDS011;30041;48.300;16.352;2023-06-26T08:00:28;4.57;;;3.92;;
43311;SDS011;30041;48.300;16.352;2023-06-26T08:02:54;4.45;;;3.88;;
43311;SDS011;30041;48.300;16.352;2023-06-26T08:05:19;5.85;;;3.80;;
43311;SDS011;30041;48.300;16.352;2023-06-26T08:07:45;5.85;;;3.80;;
43311;SDS011;30041;48.300;16.352;2023-06-26T08:10:10;4.70;;;4.00;;
43311;SDS011;30041;48.300;16.352;2023-06-26T08:12:36;4.47;;;3.80;;
43311;SDS011;30041;48.300;16.352;2023-06-26T08:15:01;4.30;;;3.58;;
43311;SDS011;30041;48.300;16.352;2023-06-26T08:17:27;5.05;;;3.63;;
43311;SDS011;30041;48.300;16.352;2023-06-26T08:19:53;4.05;;;3.28;;
43311;SDS011;30041;48.300;16.352;2023-06-26T08:22:18;3.70;;;3.30;;
43311;SDS011;30041;48.300;16.352;2023-06-26T08:24:44;4.20;;;3.35;;
43311;SDS011;30041;48.300;16.352;2023-06-26T08:27:09;5.07;;;2.90;;
43311;SDS011;30041;48.300;16.352;2023-06-26T08:29:35;4.95;;;3.58;;
43311;SDS011;30041;48.300;16.352;2023-06-26T08:32:00;3.38;;;3.00;;
43311;SDS011;30041;48.300;16.352;2023-06-26T08:34:26;3.92;;;3.25;;
43311;SDS011;30041;48.300;16.352;2023-06-26T08:36:52;3.58;;;3.22;;
43311;SDS011;30041;48.300;16.352;2023-06-26T08:39:17;3.75;;;3.28;;
43311;SDS011;30041;48.300;16.352;2023-06-26T08:41:43;4.00;;;3.08;;
43311;SDS011;30041;48.300;16.352;2023-06-26T08:44:08;3.30;;;2.80;;
43311;SDS011;30041;48.300;16.352;2023-06-26T08:46:34;3.60;;;2.90;;
43311;SDS011;30041;48.300;16.352;2023-06-26T08:52:17;3.92;;;3.13;;
43311;SDS011;30041;48.300;16.352;2023-06-26T08:55:04;4.97;;;3.00;;
43311;SDS011;30041;48.300;16.352;2023-06-26T08:57:34;4.18;;;3.67;;
43311;SDS011;30041;48.300;16.352;2023-06-26T09:00:00;5.30;;;3.78;;
43311;SDS011;30041;48.300;16.352;2023-06-26T09:02:26;7.07;;;3.97;;
43311;SDS011;30041;48.300;16.352;2023-06-26T09:04:55;5.05;;;4.35;;
43311;SDS011;30041;48.300;16.352;2023-06-26T09:07:21;4.90;;;3.97;;
43311;SDS011;30041;48.300;16.352;2023-06-26T09:09:47;5.35;;;3.90;;
43311;SDS011;30041;48.300;16.352;2023-06-26T09:12:13;7.65;;;5.82;;
43311;SDS011;30041;48.300;16.352;2023-06-26T09:14:39;5.22;;;4.70;;
43311;SDS011;30041;48.300;16.352;2023-06-26T09:17:06;7.93;;;7.10;;
43311;SDS011;30041;48.300;16.352;2023-06-26T09:19:31;7.78;;;6.45;;
43311;SDS011;30041;48.300;16.352;2023-06-26T09:21:57;7.90;;;6.32;;
43311;SDS011;30041;48.300;16.352;2023-06-26T09:24:22;7.30;;;5.45;;
43311;SDS011;30041;48.300;16.352;2023-06-26T09:26:48;7.38;;;6.00;;
43311;SDS011;30041;48.300;16.352;2023-06-26T09:29:15;5.75;;;5.18;;
43311;SDS011;30041;48.300;16.352;2023-06-26T09:31:43;8.13;;;7.00;;
43311;SDS011;30041;48.300;16.352;2023-06-26T09:34:09;6.40;;;5.80;;
43311;SDS011;30041;48.300;16.352;2023-06-26T09:36:35;7.18;;;5.97;;
43311;SDS011;30041;48.300;16.352;2023-06-26T09:39:02;8.30;;;6.07;;
43311;SDS011;30041;48.300;16.352;2023-06-26T09:41:29;7.32;;;5.97;;
43311;SDS011;30041;48.300;16.352;2023-06-26T09:43:54;8.90;;;5.72;;
43311;SDS011;30041;48.300;16.352;2023-06-26T09:46:29;6.30;;;5.35;;
43311;SDS011;30041;48.300;16.352;2023-06-26T09:51:34;6.13;;;5.35;;
43311;SDS011;30041;48.300;16.352;2023-06-26T09:54:01;6.78;;;5.18;;
43311;SDS011;30041;48.300;16.352;2023-06-26T09:56:28;6.70;;;5.07;;
43311;SDS011;30041;48.300;16.352;2023-06-26T09:58:56;5.30;;;4.80;;
43311;SDS011;30041;48.300;16.352;2023-06-26T10:01:26;5.85;;;5.18;;
43311;SDS011;30041;48.300;16.352;2023-06-26T10:03:52;5.18;;;4.50;;
43311;SDS011;30041;48.300;16.352;2023-06-26T10:06:22;5.50;;;4.72;;
43311;SDS011;30041;48.300;16.352;2023-06-26T10:08:53;5.22;;;4.72;;
43311;SDS011;30041;48.300;16.352;2023-06-26T10:11:21;5.97;;;4.70;;
43311;SDS011;30041;48.300;16.352;2023-06-26T10:13:50;7.18;;;4.25;;
43311;SDS011;30041;48.300;16.352;2023-06-26T10:16:26;4.63;;;4.18;;
43311;SDS011;30041;48.300;16.352;2023-06-26T10:18:58;4.47;;;4.07;;
43311;SDS011;30041;48.300;16.352;2023-06-26T10:21:29;5.05;;;4.40;;
43311;SDS011;30041;48.300;16.352;2023-06-26T10:23:56;5.22;;;4.40;;
43311;SDS011;30041;48.300;16.352;2023-06-26T10:26:23;4.85;;;4.28;;
43311;SDS011;30041;48.300;16.352;2023-06-26T10:28:50;5.35;;;4.13;;
43311;SDS011;30041;48.300;16.352;2023-06-26T10:31:20;5.20;;;4.20;;
43311;SDS011;30041;48.300;16.352;2023-06-26T10:33:48;4.80;;;3.80;;
43311;SDS011;30041;48.300;16.352;2023-06-26T10:36:18;4.47;;;3.95;;
43311;SDS011;30041;48.300;16.352;2023-06-26T10:38:58;4.47;;;3.95;;
43311;SDS011;30041;48.300;16.352;2023-06-26T10:41:28;5.18;;;4.20;;
43311;SDS011;30041;48.300;16.352;2023-06-26T10:46:27;4.90;;;4.20;;
43311;SDS011;30041;48.300;16.352;2023-06-26T10:48:59;4.68;;;3.97;;
43311;SDS011;30041;48.300;16.352;2023-06-26T10:51:26;6.00;;;3.90;;
43311;SDS011;30041;48.300;16.352;2023-06-26T10:53:56;4.38;;;3.85;;
43311;SDS011;30041;48.300;16.352;2023-06-26T10:56:43;4.32;;;3.92;;
43311;SDS011;30041;48.300;16.352;2023-06-26T10:59:28;4.82;;;3.75;;
43311;SDS011;30041;48.300;16.352;2023-06-26T11:01:59;3.70;;;3.30;;
43311;SDS011;30041;48.300;16.352;2023-06-26T11:04:36;3.72;;;3.25;;
43311;SDS011;30041;48.300;16.352;2023-06-26T11:07:16;3.95;;;3.55;;
43311;SDS011;30041;48.300;16.352;2023-06-26T11:10:02;4.53;;;3.60;;
43311;SDS011;30041;48.300;16.352;2023-06-26T11:12:34;4.22;;;3.47;;
43311;SDS011;30041;48.300;16.352;2023-06-26T11:15:00;4.28;;;3.67;;
43311;SDS011;30041;48.300;16.352;2023-06-26T11:17:26;4.05;;;3.20;;
43311;SDS011;30041;48.300;16.352;2023-06-26T11:19:52;5.03;;;3.25;;
43311;SDS011;30041;48.300;16.352;2023-06-26T11:22:18;3.70;;;3.10;;
43311;SDS011;30041;48.300;16.352;2023-06-26T11:24:45;3.83;;;3.00;;
43311;SDS011;30041;48.300;16.352;2023-06-26T11:27:11;4.50;;;3.80;;
43311;SDS011;30041;48.300;16.352;2023-06-26T11:29:37;4.43;;;3.55;;
43311;SDS011;30041;48.300;16.352;2023-06-26T11:32:03;4.13;;;3.30;;
43311;SDS011;30041;48.300;16.352;2023-06-26T11:34:30;3.92;;;3.10;;
43311;SDS011;30041;48.300;16.352;2023-06-26T11:36:56;4.15;;;3.00;;
43311;SDS011;30041;48.300;16.352;2023-06-26T11:39:22;3.42;;;2.95;;
43311;SDS011;30041;48.300;16.352;2023-06-26T11:41:47;3.33;;;2.70;;
43311;SDS011;30041;48.300;16.352;2023-06-26T11:44:14;3.60;;;3.10;;
43311;SDS011;30041;48.300;16.352;2023-06-26T11:46:39;3.63;;;2.78;;
43311;SDS011;30041;48.300;16.352;2023-06-26T11:49:05;5.15;;;3.30;;
43311;SDS011;30041;48.300;16.352;2023-06-26T11:51:32;3.53;;;3.08;;
43311;SDS011;30041;48.300;16.352;2023-06-26T11:54:00;3.30;;;2.90;;
43311;SDS011;30041;48.300;16.352;2023-06-26T11:56:26;3.17;;;2.60;;
43311;SDS011;30041;48.300;16.352;2023-06-26T12:02:00;3.00;;;2.70;;
43311;SDS011;30041;48.300;16.352;2023-06-26T12:04:19;3.72;;;2.80;;
43311;SDS011;30041;48.300;16.352;2023-06-26T12:06:46;3.25;;;2.63;;
43311;SDS011;30041;48.300;16.352;2023-06-26T12:09:15;3.25;;;2.90;;
43311;SDS011;30041;48.300;16.352;2023-06-26T12:11:43;2.90;;;2.50;;
43311;SDS011;30041;48.300;16.352;2023-06-26T12:14:10;3.72;;;2.80;;
43311;SDS011;30041;48.300;16.352;2023-06-26T12:16:36;3.00;;;2.50;;
43311;SDS011;30041;48.300;16.352;2023-06-26T12:19:03;3.47;;;2.55;;
43311;SDS011;30041;48.300;16.352;2023-06-26T12:24:04;3.50;;;2.63;;
43311;SDS011;30041;48.300;16.352;2023-06-26T12:26:30;3.20;;;2.85;;
43311;SDS011;30041;48.300;16.352;2023-06-26T12:29:03;3.55;;;2.90;;
43311;SDS011;30041;48.300;16.352;2023-06-26T12:31:42;3.40;;;2.78;;
43311;SDS011;30041;48.300;16.352;2023-06-26T12:34:09;3.00;;;2.65;;
43311;SDS011;30041;48.300;16.352;2023-06-26T12:36:39;3.88;;;2.80;;
43311;SDS011;30041;48.300;16.352;2023-06-26T12:39:09;2.70;;;2.40;;
43311;SDS011;30041;48.300;16.352;2023-06-26T12:41:41;4.00;;;3.05;;
43311;SDS011;30041;48.300;16.352;2023-06-26T12:44:21;3.28;;;2.75;;
43311;SDS011;30041;48.300;16.352;2023-06-26T12:46:53;3.30;;;2.70;;
43311;SDS011;30041;48.300;16.352;2023-06-26T12:49:35;4.30;;;2.80;;
43311;SDS011;30041;48.300;16.352;2023-06-26T12:52:04;3.08;;;2.58;;
43311;SDS011;30041;48.300;16.352;2023-06-26T12:54:33;3.10;;;2.40;;
43311;SDS011;30041;48.300;16.352;2023-06-26T12:56:59;6.03;;;3.22;;
43311;SDS011;30041;48.300;16.352;2023-06-26T12:59:25;5.22;;;3.30;;
43311;SDS011;30041;48.300;16.352;2023-06-26T13:01:51;4.13;;;3.40;;
43311;SDS011;30041;48.300;16.352;2023-06-26T13:04:16;6.15;;;3.78;;
43311;SDS011;30041;48.300;16.352;2023-06-26T13:06:42;4.32;;;3.63;;
43311;SDS011;30041;48.300;16.352;2023-06-26T13:09:08;4.22;;;3.50;;
43311;SDS011;30041;48.300;16.352;2023-06-26T13:11:34;4.85;;;3.70;;
43311;SDS011;30041;48.300;16.352;2023-06-26T13:14:01;5.72;;;3.60;;
43311;SDS011;30041;48.300;16.352;2023-06-26T13:16:26;4.90;;;4.05;;
43311;SDS011;30041;48.300;16.352;2023-06-26T13:18:52;5.88;;;3.80;;
43311;SDS011;30041;48.300;16.352;2023-06-26T13:21:17;4.70;;;3.90;;
43311;SDS011;30041;48.300;16.352;2023-06-26T13:23:44;6.28;;;5.03;;
43311;SDS011;30041;48.300;16.352;2023-06-26T13:26:09;6.28;;;4.63;;
43311;SDS011;30041;48.300;16.352;2023-06-26T13:28:35;5.47;;;3.65;;
43311;SDS011;30041;48.300;16.352;2023-06-26T13:31:02;5.55;;;3.85;;
43311;SDS011;30041;48.300;16.352;2023-06-26T13:33:28;5.93;;;5.32;;
43311;SDS011;30041;48.300;16.352;2023-06-26T13:35:55;7.18;;;4.72;;
43311;SDS011;30041;48.300;16.352;2023-06-26T13:38:21;5.63;;;4.55;;
43311;SDS011;30041;48.300;16.352;2023-06-26T13:40:47;5.53;;;4.55;;
43311;SDS011;30041;48.300;16.352;2023-06-26T13:43:12;6.43;;;4.55;;
43311;SDS011;30041;48.300;16.352;2023-06-26T13:45:38;4.78;;;4.13;;
43311;SDS011;30041;48.300;16.352;2023-06-26T13:48:04;6.22;;;4.85;;
43311;SDS011;30041;48.300;16.352;2023-06-26T13:50:29;5.25;;;4.05;;
43311;SDS011;30041;48.300;16.352;2023-06-26T13:52:55;5.30;;;4.78;;
43311;SDS011;30041;48.300;16.352;2023-06-26T13:55:20;7.15;;;5.60;;
43311;SDS011;30041;48.300;16.352;2023-06-26T13:57:46;6.00;;;4.60;;
43311;SDS011;30041;48.300;16.352;2023-06-26T14:00:15;6.85;;;4.88;;
43311;SDS011;30041;48.300;16.352;2023-06-26T14:02:41;5.38;;;4.57;;
43311;SDS011;30041;48.300;16.352;2023-06-26T14:05:07;6.20;;;4.15;;
43311;SDS011;30041;48.300;16.352;2023-06-26T14:07:32;6.32;;;4.70;;
43311;SDS011;30041;48.300;16.352;2023-06-26T14:09:58;6.72;;;4.88;;
43311;SDS011;30041;48.300;16.352;2023-06-26T14:12:23;5.72;;;4.50;;
43311;SDS011;30041;48.300;16.352;2023-06-26T14:14:49;6.13;;;5.53;;
43311;SDS011;30041;48.300;16.352;2023-06-26T14:17:14;5.22;;;4.65;;
43311;SDS011;30041;48.300;16.352;2023-06-26T14:19:40;7.25;;;4.70;;
43311;SDS011;30041;48.300;16.352;2023-06-26T14:22:05;5.88;;;4.30;;
43311;SDS011;30041;48.300;16.352;2023-06-26T14:24:31;8.43;;;4.70;;
43311;SDS011;30041;48.300;16.352;2023-06-26T14:26:56;5.63;;;4.45;;
43311;SDS011;30041;48.300;16.352;2023-06-26T14:29:22;6.80;;;4.93;;
43311;SDS011;30041;48.300;16.352;2023-06-26T14:31:48;6.57;;;4.47;;
43311;SDS011;30041;48.300;16.352;2023-06-26T14:34:13;5.75;;;4.10;;
43311;SDS011;30041;48.300;16.352;2023-06-26T14:36:39;5.13;;;4.10;;
43311;SDS011;30041;48.300;16.352;2023-06-26T14:39:04;6.97;;;4.18;;
43311;SDS011;30041;48.300;16.352;2023-06-26T14:41:30;12.43;;;5.00;;
43311;SDS011;30041;48.300;16.352;2023-06-26T14:43:55;6.05;;;4.20;;
43311;SDS011;30041;48.300;16.352;2023-06-26T14:46:21;6.97;;;4.70;;
43311;SDS011;30041;48.300;16.352;2023-06-26T14:48:47;6.15;;;4.18;;